sensor_id;sensor_type;location;lat;lon;timestamp;P1;durP1;ratioP1;P2;durP2;ratioP2
8632;SDS011;4354;49.832;10.746;2023-06-14T00:01:15;7.93;;;6.17;;
8632;SDS011;4354;49.832;10.746;2023-06-14T00:03:43;7.00;;;6.00;;
8632;SDS011;4354;49.832;10.746;2023-06-14T00:06:10;7.73;;;6.93;;
8632;SDS011;4354;49.832;10.746;2023-06-14T00:08:37;7.93;;;6.13;;
8632;SDS011;4354;49.832;10.746;2023-06-14T00:11:04;9.23;;;6.20;;
8632;SDS011;4354;49.832;10.746;2023-06-14T00:13:31;8.73;;;6.47;;
8632;SDS011;4354;49.832;10.746;2023-06-14T00:15:58;8.37;;;6.60;;
8632;SDS011;4354;49.832;10.746;2023-06-14T00:18:25;9.87;;;6.77;;
8632;SDS011;4354;49.832;10.746;2023-06-14T00:20:55;9.77;;;6.60;;
8632;SDS011;4354;49.832;10.746;2023-06-14T00:23:22;8.23;;;6.37;;
8632;SDS011;4354;49.832;10.746;2023-06-14T00:25:49;10.13;;;7.03;;
8632;SDS011;4354;49.832;10.746;2023-06-14T00:28:16;7.40;;;6.60;;
8632;SDS011;4354;49.832;10.746;2023-06-14T00:30:43;7.73;;;6.97;;
8632;SDS011;4354;49.832;10.746;2023-06-14T00:33:12;7.13;;;6.43;;
8632;SDS011;4354;49.832;10.746;2023-06-14T00:35:40;7.00;;;6.30;;
8632;SDS011;4354;49.832;10.746;2023-06-14T00:38:06;6.97;;;6.30;;
8632;SDS011;4354;49.832;10.746;2023-06-14T00:40:33;6.97;;;6.37;;
8632;SDS011;4354;49.832;10.746;2023-06-14T00:43:01;7.27;;;6.60;;
8632;SDS011;4354;49.832;10.746;2023-06-14T00:45:27;7.27;;;6.57;;
8632;SDS011;4354;49.832;10.746;2023-06-14T00:47:54;9.07;;;6.97;;
8632;SDS011;4354;49.832;10.746;2023-06-14T00:50:22;9.77;;;6.63;;
8632;SDS011;4354;49.832;10.746;2023-06-14T00:52:50;10.07;;;6.80;;
8632;SDS011;4354;49.832;10.746;2023-06-14T00:55:17;8.67;;;6.70;;
8632;SDS011;4354;49.832;10.746;2023-06-14T00:57:44;10.60;;;6.83;;
8632;SDS011;4354;49.832;10.746;2023-06-14T01:00:11;7.50;;;6.70;;
8632;SDS011;4354;49.832;10.746;2023-06-14T01:02:39;7.13;;;6.47;;
8632;SDS011;4354;49.832;10.746;2023-06-14T01:05:06;9.37;;;6.60;;
8632;SDS011;4354;49.832;10.746;2023-06-14T01:13:20;7.70;;;6.80;;
8632;SDS011;4354;49.832;10.746;2023-06-14T01:15:52;7.63;;;6.77;;
8632;SDS011;4354;49.832;10.746;2023-06-14T01:18:20;7.80;;;7.00;;
8632;SDS011;4354;49.832;10.746;2023-06-14T01:20:50;6.93;;;6.20;;
8632;SDS011;4354;49.832;10.746;2023-06-14T01:23:17;7.40;;;6.53;;
8632;SDS011;4354;49.832;10.746;2023-06-14T01:25:45;7.20;;;6.50;;
8632;SDS011;4354;49.832;10.746;2023-06-14T01:28:13;7.60;;;6.90;;
8632;SDS011;4354;49.832;10.746;2023-06-14T01:30:43;8.13;;;7.10;;
8632;SDS011;4354;49.832;10.746;2023-06-14T01:33:13;7.83;;;6.37;;
8632;SDS011;4354;49.832;10.746;2023-06-14T01:35:42;7.20;;;6.57;;
8632;SDS011;4354;49.832;10.746;2023-06-14T01:38:10;7.33;;;6.63;;
8632;SDS011;4354;49.832;10.746;2023-06-14T01:40:38;7.20;;;6.50;;
8632;SDS011;4354;49.832;10.746;2023-06-14T01:43:06;8.90;;;7.40;;
8632;SDS011;4354;49.832;10.746;2023-06-14T01:45:33;7.20;;;6.40;;
8632;SDS011;4354;49.832;10.746;2023-06-14T01:48:02;7.97;;;7.17;;
8632;SDS011;4354;49.832;10.746;2023-06-14T01:50:29;9.77;;;7.80;;
8632;SDS011;4354;49.832;10.746;2023-06-14T01:52:57;7.33;;;6.47;;
8632;SDS011;4354;49.832;10.746;2023-06-14T01:55:24;8.80;;;6.80;;
8632;SDS011;4354;49.832;10.746;2023-06-14T01:57:51;7.77;;;7.07;;
8632;SDS011;4354;49.832;10.746;2023-06-14T02:00:19;8.67;;;7.17;;
8632;SDS011;4354;49.832;10.746;2023-06-14T02:02:47;9.77;;;7.60;;
8632;SDS011;4354;49.832;10.746;2023-06-14T02:05:15;8.20;;;7.23;;
8632;SDS011;4354;49.832;10.746;2023-06-14T02:07:45;9.97;;;7.33;;
8632;SDS011;4354;49.832;10.746;2023-06-14T02:10:12;8.00;;;7.20;;
8632;SDS011;4354;49.832;10.746;2023-06-14T02:12:40;7.70;;;7.00;;
8632;SDS011;4354;49.832;10.746;2023-06-14T02:15:07;10.10;;;7.43;;
8632;SDS011;4354;49.832;10.746;2023-06-14T02:17:35;10.43;;;6.90;;
8632;SDS011;4354;49.832;10.746;2023-06-14T02:20:02;7.47;;;6.77;;
8632;SDS011;4354;49.832;10.746;2023-06-14T02:22:29;12.97;;;7.97;;
8632;SDS011;4354;49.832;10.746;2023-06-14T02:24:56;7.97;;;7.17;;
8632;SDS011;4354;49.832;10.746;2023-06-14T02:27:28;7.77;;;6.97;;
8632;SDS011;4354;49.832;10.746;2023-06-14T02:29:54;8.37;;;7.57;;
8632;SDS011;4354;49.832;10.746;2023-06-14T02:32:21;8.53;;;7.50;;
8632;SDS011;4354;49.832;10.746;2023-06-14T02:34:48;7.77;;;6.87;;
8632;SDS011;4354;49.832;10.746;2023-06-14T02:37:16;8.10;;;7.40;;
8632;SDS011;4354;49.832;10.746;2023-06-14T02:39:43;10.30;;;7.27;;
8632;SDS011;4354;49.832;10.746;2023-06-14T02:42:09;9.23;;;7.23;;
8632;SDS011;4354;49.832;10.746;2023-06-14T02:44:36;8.03;;;7.33;;
8632;SDS011;4354;49.832;10.746;2023-06-14T02:47:04;8.33;;;7.33;;
8632;SDS011;4354;49.832;10.746;2023-06-14T02:49:31;8.30;;;7.50;;
8632;SDS011;4354;49.832;10.746;2023-06-14T02:51:58;7.93;;;7.23;;
8632;SDS011;4354;49.832;10.746;2023-06-14T02:54:24;7.60;;;7.00;;
8632;SDS011;4354;49.832;10.746;2023-06-14T02:56:52;8.97;;;7.87;;
8632;SDS011;4354;49.832;10.746;2023-06-14T02:59:19;7.93;;;7.23;;
8632;SDS011;4354;49.832;10.746;2023-06-14T03:01:47;8.13;;;7.33;;
8632;SDS011;4354;49.832;10.746;2023-06-14T03:04:14;9.40;;;7.40;;
8632;SDS011;4354;49.832;10.746;2023-06-14T03:06:42;8.07;;;7.23;;
8632;SDS011;4354;49.832;10.746;2023-06-14T03:09:10;9.43;;;8.10;;
8632;SDS011;4354;49.832;10.746;2023-06-14T03:11:38;8.33;;;7.63;;
8632;SDS011;4354;49.832;10.746;2023-06-14T03:14:04;11.40;;;7.73;;
8632;SDS011;4354;49.832;10.746;2023-06-14T03:16:33;8.67;;;7.77;;
8632;SDS011;4354;49.832;10.746;2023-06-14T03:19:00;8.50;;;7.70;;
8632;SDS011;4354;49.832;10.746;2023-06-14T03:21:27;8.70;;;6.93;;
8632;SDS011;4354;49.832;10.746;2023-06-14T03:23:54;8.53;;;7.50;;
8632;SDS011;4354;49.832;10.746;2023-06-14T03:26:21;7.77;;;7.03;;
8632;SDS011;4354;49.832;10.746;2023-06-14T03:28:48;9.03;;;6.73;;
8632;SDS011;4354;49.832;10.746;2023-06-14T03:31:16;7.37;;;6.77;;
8632;SDS011;4354;49.832;10.746;2023-06-14T03:33:43;8.47;;;6.90;;
8632;SDS011;4354;49.832;10.746;2023-06-14T03:36:10;8.37;;;7.23;;
8632;SDS011;4354;49.832;10.746;2023-06-14T03:38:37;7.70;;;7.00;;
8632;SDS011;4354;49.832;10.746;2023-06-14T03:41:03;8.97;;;8.07;;
8632;SDS011;4354;49.832;10.746;2023-06-14T03:43:30;8.40;;;7.60;;
8632;SDS011;4354;49.832;10.746;2023-06-14T03:45:57;8.50;;;7.40;;
8632;SDS011;4354;49.832;10.746;2023-06-14T03:48:24;10.33;;;7.77;;
8632;SDS011;4354;49.832;10.746;2023-06-14T03:50:51;8.10;;;7.30;;
8632;SDS011;4354;49.832;10.746;2023-06-14T03:53:18;9.07;;;7.47;;
8632;SDS011;4354;49.832;10.746;2023-06-14T03:55:46;8.30;;;7.53;;
8632;SDS011;4354;49.832;10.746;2023-06-14T03:58:17;8.40;;;7.60;;
8632;SDS011;4354;49.832;10.746;2023-06-14T04:00:44;7.90;;;7.20;;
8632;SDS011;4354;49.832;10.746;2023-06-14T04:03:11;8.10;;;7.27;;
8632;SDS011;4354;49.832;10.746;2023-06-14T04:05:39;8.17;;;7.43;;
8632;SDS011;4354;49.832;10.746;2023-06-14T04:08:08;7.90;;;7.10;;
8632;SDS011;4354;49.832;10.746;2023-06-14T04:10:35;9.30;;;8.40;;
8632;SDS011;4354;49.832;10.746;2023-06-14T04:13:02;8.63;;;7.83;;
8632;SDS011;4354;49.832;10.746;2023-06-14T04:15:30;9.53;;;8.60;;
8632;SDS011;4354;49.832;10.746;2023-06-14T04:17:57;9.10;;;8.20;;
8632;SDS011;4354;49.832;10.746;2023-06-14T04:20:24;8.67;;;7.87;;
8632;SDS011;4354;49.832;10.746;2023-06-14T04:22:51;7.60;;;6.90;;
8632;SDS011;4354;49.832;10.746;2023-06-14T04:25:18;8.10;;;7.30;;
8632;SDS011;4354;49.832;10.746;2023-06-14T04:27:49;9.00;;;7.73;;
8632;SDS011;4354;49.832;10.746;2023-06-14T04:30:16;8.13;;;7.33;;
8632;SDS011;4354;49.832;10.746;2023-06-14T04:32:43;8.30;;;7.43;;
8632;SDS011;4354;49.832;10.746;2023-06-14T04:35:11;9.30;;;7.50;;
8632;SDS011;4354;49.832;10.746;2023-06-14T04:37:39;8.07;;;7.27;;
8632;SDS011;4354;49.832;10.746;2023-06-14T04:40:08;6.97;;;6.37;;
8632;SDS011;4354;49.832;10.746;2023-06-14T04:42:37;9.53;;;7.67;;
8632;SDS011;4354;49.832;10.746;2023-06-14T04:45:07;8.93;;;7.17;;
8632;SDS011;4354;49.832;10.746;2023-06-14T04:47:35;7.47;;;6.77;;
8632;SDS011;4354;49.832;10.746;2023-06-14T04:50:03;7.80;;;7.00;;
8632;SDS011;4354;49.832;10.746;2023-06-14T04:52:30;7.73;;;6.70;;
8632;SDS011;4354;49.832;10.746;2023-06-14T04:54:57;8.23;;;7.43;;
8632;SDS011;4354;49.832;10.746;2023-06-14T04:57:25;8.80;;;7.00;;
8632;SDS011;4354;49.832;10.746;2023-06-14T04:59:52;8.87;;;6.93;;
8632;SDS011;4354;49.832;10.746;2023-06-14T05:02:25;8.63;;;7.17;;
8632;SDS011;4354;49.832;10.746;2023-06-14T05:04:52;7.73;;;6.93;;
8632;SDS011;4354;49.832;10.746;2023-06-14T05:07:19;8.57;;;6.87;;
8632;SDS011;4354;49.832;10.746;2023-06-14T05:09:46;9.30;;;6.60;;
8632;SDS011;4354;49.832;10.746;2023-06-14T05:12:13;9.53;;;6.53;;
8632;SDS011;4354;49.832;10.746;2023-06-14T05:14:44;7.73;;;7.00;;
8632;SDS011;4354;49.832;10.746;2023-06-14T05:17:11;8.43;;;6.97;;
8632;SDS011;4354;49.832;10.746;2023-06-14T05:19:38;7.33;;;6.53;;
8632;SDS011;4354;49.832;10.746;2023-06-14T05:22:05;6.80;;;5.73;;
8632;SDS011;4354;49.832;10.746;2023-06-14T05:24:32;8.13;;;6.87;;
8632;SDS011;4354;49.832;10.746;2023-06-14T05:26:58;8.23;;;6.03;;
8632;SDS011;4354;49.832;10.746;2023-06-14T05:29:25;7.73;;;6.30;;
8632;SDS011;4354;49.832;10.746;2023-06-14T05:31:56;8.20;;;6.37;;
8632;SDS011;4354;49.832;10.746;2023-06-14T05:34:23;8.13;;;6.20;;
8632;SDS011;4354;49.832;10.746;2023-06-14T05:36:49;7.17;;;5.67;;
8632;SDS011;4354;49.832;10.746;2023-06-14T05:39:16;7.67;;;6.23;;
8632;SDS011;4354;49.832;10.746;2023-06-14T05:41:43;11.03;;;5.70;;
8632;SDS011;4354;49.832;10.746;2023-06-14T05:44:10;7.87;;;5.70;;
8632;SDS011;4354;49.832;10.746;2023-06-14T05:46:37;7.70;;;5.50;;
8632;SDS011;4354;49.832;10.746;2023-06-14T05:49:06;5.53;;;5.03;;
8632;SDS011;4354;49.832;10.746;2023-06-14T05:51:33;8.15;;;5.47;;
8632;SDS011;4354;49.832;10.746;2023-06-14T05:54:01;6.97;;;5.78;;
8632;SDS011;4354;49.832;10.746;2023-06-14T05:56:28;5.75;;;4.93;;
8632;SDS011;4354;49.832;10.746;2023-06-14T05:58:55;7.47;;;5.28;;
8632;SDS011;4354;49.832;10.746;2023-06-14T06:01:21;8.57;;;6.22;;
8632;SDS011;4354;49.832;10.746;2023-06-14T06:03:48;6.63;;;4.82;;
8632;SDS011;4354;49.832;10.746;2023-06-14T06:06:15;6.07;;;5.47;;
8632;SDS011;4354;49.832;10.746;2023-06-14T06:08:42;5.75;;;4.55;;
8632;SDS011;4354;49.832;10.746;2023-06-14T06:11:09;7.78;;;5.22;;
8632;SDS011;4354;49.832;10.746;2023-06-14T06:13:36;7.65;;;5.18;;
8632;SDS011;4354;49.832;10.746;2023-06-14T06:16:05;6.72;;;5.47;;
8632;SDS011;4354;49.832;10.746;2023-06-14T06:18:32;5.30;;;4.43;;
8632;SDS011;4354;49.832;10.746;2023-06-14T06:20:59;6.63;;;5.10;;
8632;SDS011;4354;49.832;10.746;2023-06-14T06:23:25;8.45;;;5.60;;
8632;SDS011;4354;49.832;10.746;2023-06-14T06:25:52;7.97;;;5.10;;
8632;SDS011;4354;49.832;10.746;2023-06-14T06:28:19;4.90;;;3.90;;
8632;SDS011;4354;49.832;10.746;2023-06-14T06:30:46;6.40;;;5.22;;
8632;SDS011;4354;49.832;10.746;2023-06-14T06:33:13;6.43;;;5.10;;
8632;SDS011;4354;49.832;10.746;2023-06-14T06:35:40;4.93;;;4.43;;
8632;SDS011;4354;49.832;10.746;2023-06-14T06:38:07;8.60;;;5.10;;
8632;SDS011;4354;49.832;10.746;2023-06-14T06:40:36;7.18;;;4.72;;
8632;SDS011;4354;49.832;10.746;2023-06-14T06:43:03;8.00;;;4.80;;
8632;SDS011;4354;49.832;10.746;2023-06-14T06:45:29;5.15;;;4.55;;
8632;SDS011;4354;49.832;10.746;2023-06-14T06:47:56;4.88;;;4.38;;
8632;SDS011;4354;49.832;10.746;2023-06-14T06:50:23;6.22;;;4.75;;
8632;SDS011;4354;49.832;10.746;2023-06-14T06:52:51;6.95;;;4.53;;
8632;SDS011;4354;49.832;10.746;2023-06-14T06:55:19;5.82;;;4.53;;
8632;SDS011;4354;49.832;10.746;2023-06-14T06:57:46;7.05;;;4.65;;
8632;SDS011;4354;49.832;10.746;2023-06-14T07:00:13;7.90;;;4.63;;
8632;SDS011;4354;49.832;10.746;2023-06-14T07:02:40;5.50;;;4.35;;
8632;SDS011;4354;49.832;10.746;2023-06-14T07:05:07;5.93;;;4.60;;
8632;SDS011;4354;49.832;10.746;2023-06-14T07:07:35;6.20;;;4.18;;
8632;SDS011;4354;49.832;10.746;2023-06-14T07:10:02;6.43;;;4.20;;
8632;SDS011;4354;49.832;10.746;2023-06-14T07:12:31;8.93;;;4.45;;
8632;SDS011;4354;49.832;10.746;2023-06-14T07:15:00;8.13;;;4.65;;
8632;SDS011;4354;49.832;10.746;2023-06-14T07:17:27;5.55;;;4.82;;
8632;SDS011;4354;49.832;10.746;2023-06-14T07:19:54;5.30;;;4.53;;
8632;SDS011;4354;49.832;10.746;2023-06-14T07:22:20;7.35;;;4.22;;
8632;SDS011;4354;49.832;10.746;2023-06-14T07:24:47;6.63;;;4.28;;
8632;SDS011;4354;49.832;10.746;2023-06-14T07:27:14;5.03;;;4.03;;
8632;SDS011;4354;49.832;10.746;2023-06-14T07:29:41;8.07;;;4.38;;
8632;SDS011;4354;49.832;10.746;2023-06-14T07:32:08;7.65;;;4.65;;
8632;SDS011;4354;49.832;10.746;2023-06-14T07:34:34;5.15;;;4.20;;
8632;SDS011;4354;49.832;10.746;2023-06-14T07:37:01;9.27;;;4.50;;
8632;SDS011;4354;49.832;10.746;2023-06-14T07:39:28;4.20;;;3.28;;
8632;SDS011;4354;49.832;10.746;2023-06-14T07:41:56;6.05;;;3.90;;
8632;SDS011;4354;49.832;10.746;2023-06-14T07:44:23;4.35;;;3.70;;
8632;SDS011;4354;49.832;10.746;2023-06-14T07:46:49;6.15;;;3.42;;
8632;SDS011;4354;49.832;10.746;2023-06-14T07:49:16;5.25;;;3.33;;
8632;SDS011;4354;49.832;10.746;2023-06-14T07:51:43;4.55;;;3.13;;
8632;SDS011;4354;49.832;10.746;2023-06-14T07:54:11;5.75;;;3.20;;
8632;SDS011;4354;49.832;10.746;2023-06-14T07:56:38;5.32;;;3.45;;
8632;SDS011;4354;49.832;10.746;2023-06-14T07:59:09;4.93;;;2.80;;
8632;SDS011;4354;49.832;10.746;2023-06-14T08:01:36;3.95;;;3.20;;
8632;SDS011;4354;49.832;10.746;2023-06-14T08:04:03;4.13;;;3.17;;
8632;SDS011;4354;49.832;10.746;2023-06-14T08:06:30;6.10;;;2.90;;
8632;SDS011;4354;49.832;10.746;2023-06-14T08:08:57;5.32;;;2.70;;
8632;SDS011;4354;49.832;10.746;2023-06-14T08:11:24;4.07;;;2.90;;
8632;SDS011;4354;49.832;10.746;2023-06-14T08:13:54;4.53;;;2.72;;
8632;SDS011;4354;49.832;10.746;2023-06-14T08:16:21;5.68;;;2.67;;
8632;SDS011;4354;49.832;10.746;2023-06-14T08:18:48;2.78;;;2.35;;
8632;SDS011;4354;49.832;10.746;2023-06-14T08:21:15;5.25;;;2.85;;
8632;SDS011;4354;49.832;10.746;2023-06-14T08:23:42;3.33;;;2.88;;
8632;SDS011;4354;49.832;10.746;2023-06-14T08:26:11;6.05;;;2.88;;
8632;SDS011;4354;49.832;10.746;2023-06-14T08:28:38;6.32;;;2.65;;
8632;SDS011;4354;49.832;10.746;2023-06-14T08:31:05;2.95;;;2.35;;
8632;SDS011;4354;49.832;10.746;2023-06-14T08:33:32;3.33;;;2.55;;
8632;SDS011;4354;49.832;10.746;2023-06-14T08:36:01;3.53;;;2.58;;
8632;SDS011;4354;49.832;10.746;2023-06-14T08:38:28;3.83;;;2.78;;
8632;SDS011;4354;49.832;10.746;2023-06-14T08:40:57;3.55;;;2.55;;
8632;SDS011;4354;49.832;10.746;2023-06-14T08:43:24;2.92;;;2.67;;
8632;SDS011;4354;49.832;10.746;2023-06-14T08:45:53;3.92;;;2.75;;
8632;SDS011;4354;49.832;10.746;2023-06-14T08:48:28;4.40;;;2.90;;
8632;SDS011;4354;49.832;10.746;2023-06-14T08:51:01;6.63;;;3.10;;
8632;SDS011;4354;49.832;10.746;2023-06-14T08:53:30;4.93;;;2.65;;
8632;SDS011;4354;49.832;10.746;2023-06-14T08:56:03;7.30;;;2.67;;
8632;SDS011;4354;49.832;10.746;2023-06-14T08:58:31;5.78;;;2.72;;
8632;SDS011;4354;49.832;10.746;2023-06-14T09:01:03;4.65;;;2.70;;
8632;SDS011;4354;49.832;10.746;2023-06-14T09:03:31;2.83;;;2.53;;
8632;SDS011;4354;49.832;10.746;2023-06-14T09:05:59;3.17;;;2.83;;
8632;SDS011;4354;49.832;10.746;2023-06-14T09:08:27;6.20;;;3.03;;
8632;SDS011;4354;49.832;10.746;2023-06-14T09:10:57;5.25;;;2.70;;
8632;SDS011;4354;49.832;10.746;2023-06-14T09:13:24;2.78;;;2.55;;
8632;SDS011;4354;49.832;10.746;2023-06-14T09:15:57;3.22;;;2.60;;
8632;SDS011;4354;49.832;10.746;2023-06-14T09:18:33;4.45;;;3.00;;
8632;SDS011;4354;49.832;10.746;2023-06-14T09:21:01;3.40;;;3.10;;
8632;SDS011;4354;49.832;10.746;2023-06-14T09:23:28;5.65;;;3.20;;
8632;SDS011;4354;49.832;10.746;2023-06-14T09:25:55;3.72;;;2.70;;
8632;SDS011;4354;49.832;10.746;2023-06-14T09:28:26;3.63;;;3.15;;
8632;SDS011;4354;49.832;10.746;2023-06-14T09:30:54;2.90;;;2.65;;
8632;SDS011;4354;49.832;10.746;2023-06-14T09:33:21;3.13;;;2.90;;
8632;SDS011;4354;49.832;10.746;2023-06-14T09:35:51;3.30;;;2.70;;
8632;SDS011;4354;49.832;10.746;2023-06-14T09:38:18;4.30;;;2.60;;
8632;SDS011;4354;49.832;10.746;2023-06-14T09:40:45;5.43;;;2.75;;
8632;SDS011;4354;49.832;10.746;2023-06-14T09:43:12;3.88;;;2.70;;
8632;SDS011;4354;49.832;10.746;2023-06-14T09:45:39;3.25;;;2.50;;
8632;SDS011;4354;49.832;10.746;2023-06-14T09:48:07;3.80;;;2.60;;
8632;SDS011;4354;49.832;10.746;2023-06-14T09:50:35;3.35;;;2.75;;
8632;SDS011;4354;49.832;10.746;2023-06-14T09:53:02;5.50;;;3.03;;
8632;SDS011;4354;49.832;10.746;2023-06-14T09:55:34;5.28;;;2.78;;
8632;SDS011;4354;49.832;10.746;2023-06-14T09:58:04;3.22;;;2.90;;
8632;SDS011;4354;49.832;10.746;2023-06-14T10:00:33;6.00;;;2.83;;
8632;SDS011;4354;49.832;10.746;2023-06-14T10:03:03;4.53;;;2.63;;
8632;SDS011;4354;49.832;10.746;2023-06-14T10:05:47;4.47;;;2.70;;
8632;SDS011;4354;49.832;10.746;2023-06-14T10:08:17;3.35;;;2.83;;
8632;SDS011;4354;49.832;10.746;2023-06-14T10:10:46;5.22;;;2.80;;
8632;SDS011;4354;49.832;10.746;2023-06-14T10:13:13;3.20;;;2.55;;
8632;SDS011;4354;49.832;10.746;2023-06-14T10:15:49;4.85;;;2.70;;
8632;SDS011;4354;49.832;10.746;2023-06-14T10:18:27;3.05;;;2.72;;
8632;SDS011;4354;49.832;10.746;2023-06-14T10:21:18;5.60;;;2.60;;
8632;SDS011;4354;49.832;10.746;2023-06-14T10:23:53;3.08;;;2.75;;
8632;SDS011;4354;49.832;10.746;2023-06-14T10:26:22;3.10;;;2.80;;
8632;SDS011;4354;49.832;10.746;2023-06-14T10:28:56;4.63;;;2.38;;
8632;SDS011;4354;49.832;10.746;2023-06-14T10:31:39;2.75;;;2.25;;
8632;SDS011;4354;49.832;10.746;2023-06-14T10:34:25;3.25;;;2.70;;
8632;SDS011;4354;49.832;10.746;2023-06-14T10:37:27;3.40;;;2.42;;
8632;SDS011;4354;49.832;10.746;2023-06-14T10:39:46;4.65;;;2.72;;
8632;SDS011;4354;49.832;10.746;2023-06-14T10:42:14;3.47;;;2.75;;
8632;SDS011;4354;49.832;10.746;2023-06-14T10:44:42;3.42;;;2.60;;
8632;SDS011;4354;49.832;10.746;2023-06-14T10:47:25;4.40;;;2.55;;
8632;SDS011;4354;49.832;10.746;2023-06-14T10:52:34;3.65;;;2.55;;
8632;SDS011;4354;49.832;10.746;2023-06-14T10:57:38;4.50;;;2.67;;
8632;SDS011;4354;49.832;10.746;2023-06-14T11:00:10;3.03;;;2.60;;
8632;SDS011;4354;49.832;10.746;2023-06-14T11:02:46;8.40;;;2.50;;
8632;SDS011;4354;49.832;10.746;2023-06-14T11:05:24;5.22;;;2.40;;
8632;SDS011;4354;49.832;10.746;2023-06-14T11:08:14;3.53;;;2.90;;
8632;SDS011;4354;49.832;10.746;2023-06-14T11:11:05;3.33;;;2.53;;
8632;SDS011;4354;49.832;10.746;2023-06-14T11:13:33;2.70;;;2.50;;
8632;SDS011;4354;49.832;10.746;2023-06-14T11:16:00;2.78;;;2.58;;
8632;SDS011;4354;49.832;10.746;2023-06-14T11:18:28;4.05;;;2.80;;
8632;SDS011;4354;49.832;10.746;2023-06-14T11:20:55;4.75;;;2.72;;
8632;SDS011;4354;49.832;10.746;2023-06-14T11:23:22;2.67;;;2.47;;
8632;SDS011;4354;49.832;10.746;2023-06-14T11:25:52;3.80;;;2.60;;
8632;SDS011;4354;49.832;10.746;2023-06-14T11:28:19;3.83;;;2.67;;
8632;SDS011;4354;49.832;10.746;2023-06-14T11:31:00;3.58;;;2.70;;
8632;SDS011;4354;49.832;10.746;2023-06-14T11:33:27;2.88;;;2.67;;
8632;SDS011;4354;49.832;10.746;2023-06-14T11:35:54;3.47;;;3.17;;
8632;SDS011;4354;49.832;10.746;2023-06-14T11:38:21;4.40;;;2.85;;
8632;SDS011;4354;49.832;10.746;2023-06-14T11:40:48;5.95;;;2.80;;
8632;SDS011;4354;49.832;10.746;2023-06-14T11:43:15;3.33;;;3.03;;
8632;SDS011;4354;49.832;10.746;2023-06-14T11:45:43;3.25;;;2.50;;
8632;SDS011;4354;49.832;10.746;2023-06-14T11:48:35;4.15;;;2.72;;
8632;SDS011;4354;49.832;10.746;2023-06-14T11:51:06;3.25;;;2.70;;
8632;SDS011;4354;49.832;10.746;2023-06-14T11:53:33;2.83;;;2.53;;
8632;SDS011;4354;49.832;10.746;2023-06-14T11:56:01;4.18;;;2.72;;
8632;SDS011;4354;49.832;10.746;2023-06-14T11:58:28;3.83;;;2.55;;
8632;SDS011;4354;49.832;10.746;2023-06-14T12:00:56;3.80;;;2.88;;
8632;SDS011;4354;49.832;10.746;2023-06-14T12:03:26;3.28;;;2.90;;
8632;SDS011;4354;49.832;10.746;2023-06-14T12:06:06;6.35;;;3.00;;
8632;SDS011;4354;49.832;10.746;2023-06-14T12:08:35;4.00;;;2.85;;
8632;SDS011;4354;49.832;10.746;2023-06-14T12:11:07;4.38;;;2.97;;
8632;SDS011;4354;49.832;10.746;2023-06-14T12:13:43;3.40;;;2.30;;
8632;SDS011;4354;49.832;10.746;2023-06-14T12:16:10;9.88;;;3.17;;
8632;SDS011;4354;49.832;10.746;2023-06-14T12:18:39;2.80;;;2.60;;
8632;SDS011;4354;49.832;10.746;2023-06-14T12:21:07;2.63;;;2.42;;
8632;SDS011;4354;49.832;10.746;2023-06-14T12:23:43;3.63;;;2.55;;
8632;SDS011;4354;49.832;10.746;2023-06-14T12:26:12;3.45;;;2.65;;
8632;SDS011;4354;49.832;10.746;2023-06-14T12:28:43;3.00;;;2.70;;
8632;SDS011;4354;49.832;10.746;2023-06-14T12:31:11;3.03;;;2.60;;
8632;SDS011;4354;49.832;10.746;2023-06-14T12:33:39;3.08;;;2.50;;
8632;SDS011;4354;49.832;10.746;2023-06-14T12:36:08;3.35;;;2.17;;
8632;SDS011;4354;49.832;10.746;2023-06-14T12:38:36;4.97;;;2.65;;
8632;SDS011;4354;49.832;10.746;2023-06-14T12:41:04;4.05;;;2.25;;
8632;SDS011;4354;49.832;10.746;2023-06-14T12:43:31;3.85;;;2.75;;
8632;SDS011;4354;49.832;10.746;2023-06-14T12:45:58;2.85;;;2.30;;
8632;SDS011;4354;49.832;10.746;2023-06-14T12:48:25;4.13;;;2.10;;
8632;SDS011;4354;49.832;10.746;2023-06-14T12:50:53;3.42;;;2.65;;
8632;SDS011;4354;49.832;10.746;2023-06-14T12:53:20;5.00;;;2.90;;
8632;SDS011;4354;49.832;10.746;2023-06-14T12:55:47;3.05;;;2.60;;
8632;SDS011;4354;49.832;10.746;2023-06-14T12:58:14;2.75;;;2.33;;
8632;SDS011;4354;49.832;10.746;2023-06-14T13:00:43;2.20;;;2.00;;
8632;SDS011;4354;49.832;10.746;2023-06-14T13:03:10;2.80;;;2.28;;
8632;SDS011;4354;49.832;10.746;2023-06-14T13:05:37;4.57;;;2.20;;
8632;SDS011;4354;49.832;10.746;2023-06-14T13:08:07;3.40;;;2.17;;
8632;SDS011;4354;49.832;10.746;2023-06-14T13:10:37;3.38;;;2.20;;
8632;SDS011;4354;49.832;10.746;2023-06-14T13:13:04;5.55;;;2.60;;
8632;SDS011;4354;49.832;10.746;2023-06-14T13:15:31;3.85;;;2.45;;
8632;SDS011;4354;49.832;10.746;2023-06-14T13:17:58;2.40;;;2.20;;
8632;SDS011;4354;49.832;10.746;2023-06-14T13:20:24;6.13;;;2.45;;
8632;SDS011;4354;49.832;10.746;2023-06-14T13:22:51;2.78;;;2.15;;
8632;SDS011;4354;49.832;10.746;2023-06-14T13:25:18;4.38;;;2.40;;
8632;SDS011;4354;49.832;10.746;2023-06-14T13:27:45;3.03;;;2.33;;
8632;SDS011;4354;49.832;10.746;2023-06-14T13:30:12;3.10;;;2.55;;
8632;SDS011;4354;49.832;10.746;2023-06-14T13:32:40;2.92;;;2.30;;
8632;SDS011;4354;49.832;10.746;2023-06-14T13:35:07;8.82;;;2.95;;
8632;SDS011;4354;49.832;10.746;2023-06-14T13:37:34;2.50;;;2.30;;
8632;SDS011;4354;49.832;10.746;2023-06-14T13:40:01;3.70;;;2.22;;
8632;SDS011;4354;49.832;10.746;2023-06-14T13:42:28;4.38;;;2.42;;
8632;SDS011;4354;49.832;10.746;2023-06-14T13:44:58;2.33;;;2.10;;
8632;SDS011;4354;49.832;10.746;2023-06-14T13:47:24;2.40;;;2.20;;
8632;SDS011;4354;49.832;10.746;2023-06-14T13:49:52;2.30;;;2.10;;
8632;SDS011;4354;49.832;10.746;2023-06-14T13:52:18;2.45;;;2.25;;
8632;SDS011;4354;49.832;10.746;2023-06-14T13:54:45;2.47;;;2.13;;
8632;SDS011;4354;49.832;10.746;2023-06-14T13:57:15;3.17;;;1.88;;
8632;SDS011;4354;49.832;10.746;2023-06-14T13:59:42;3.95;;;2.33;;
8632;SDS011;4354;49.832;10.746;2023-06-14T14:02:12;2.55;;;2.28;;
8632;SDS011;4354;49.832;10.746;2023-06-14T14:04:39;2.40;;;2.20;;
8632;SDS011;4354;49.832;10.746;2023-06-14T14:07:07;4.60;;;2.20;;
8632;SDS011;4354;49.832;10.746;2023-06-14T14:09:34;2.38;;;2.10;;
8632;SDS011;4354;49.832;10.746;2023-06-14T14:12:02;2.47;;;2.28;;
8632;SDS011;4354;49.832;10.746;2023-06-14T14:14:29;5.10;;;2.30;;
8632;SDS011;4354;49.832;10.746;2023-06-14T14:16:58;2.63;;;2.42;;
8632;SDS011;4354;49.832;10.746;2023-06-14T14:19:25;5.80;;;2.15;;
8632;SDS011;4354;49.832;10.746;2023-06-14T14:21:52;2.47;;;2.05;;
8632;SDS011;4354;49.832;10.746;2023-06-14T14:24:20;2.65;;;2.45;;
8632;SDS011;4354;49.832;10.746;2023-06-14T14:26:46;2.70;;;2.20;;
8632;SDS011;4354;49.832;10.746;2023-06-14T14:29:15;2.58;;;2.38;;
8632;SDS011;4354;49.832;10.746;2023-06-14T14:31:43;5.20;;;2.30;;
8632;SDS011;4354;49.832;10.746;2023-06-14T14:34:09;3.75;;;2.40;;
8632;SDS011;4354;49.832;10.746;2023-06-14T14:36:36;2.40;;;2.20;;
8632;SDS011;4354;49.832;10.746;2023-06-14T14:39:04;3.20;;;2.20;;
8632;SDS011;4354;49.832;10.746;2023-06-14T14:41:31;2.70;;;2.10;;
8632;SDS011;4354;49.832;10.746;2023-06-14T14:43:58;2.67;;;2.22;;
8632;SDS011;4354;49.832;10.746;2023-06-14T14:46:27;6.70;;;2.40;;
8632;SDS011;4354;49.832;10.746;2023-06-14T14:48:54;2.50;;;2.30;;
8632;SDS011;4354;49.832;10.746;2023-06-14T14:51:21;2.58;;;2.00;;
8632;SDS011;4354;49.832;10.746;2023-06-14T14:53:48;4.03;;;2.08;;
8632;SDS011;4354;49.832;10.746;2023-06-14T14:56:14;3.03;;;2.22;;
8632;SDS011;4354;49.832;10.746;2023-06-14T14:58:41;2.42;;;2.22;;
8632;SDS011;4354;49.832;10.746;2023-06-14T15:01:08;2.10;;;1.90;;
8632;SDS011;4354;49.832;10.746;2023-06-14T15:03:35;3.53;;;2.20;;
8632;SDS011;4354;49.832;10.746;2023-06-14T15:06:22;2.47;;;2.28;;
8632;SDS011;4354;49.832;10.746;2023-06-14T15:08:49;2.30;;;2.10;;
8632;SDS011;4354;49.832;10.746;2023-06-14T15:11:17;3.03;;;2.15;;
8632;SDS011;4354;49.832;10.746;2023-06-14T15:13:44;3.17;;;2.20;;
8632;SDS011;4354;49.832;10.746;2023-06-14T15:16:10;3.45;;;2.20;;
8632;SDS011;4354;49.832;10.746;2023-06-14T15:18:37;4.68;;;2.20;;